Time;durP1;ratioP1;P1;durP2;ratioP2;P2;SDS_P1;SDS_P2;PMS_P1;PMS_P2;Temp;Humidity;BMP_temperature;BMP_pressure;BME280_temperature;BME280_humidity;BME280_pressure;Samples;Min_cycle;Max_cycle;Signal;HPM_P1;HPM_P2
2022/12/24 00:01:00;;;;;;;63.92;41.33;;;;;;;2.86;87.21;99165.63;1788651;78;21307;-65
2022/12/24 00:03:26;;;;;;;61.00;43.50;;;;;;;2.84;87.25;99157.52;1817327;79;21092;-65
2022/12/24 00:05:53;;;;;;;68.42;44.40;;;;;;;2.84;87.25;99157.52;1817439;79;21026;-65
2022/12/24 00:08:19;;;;;;;64.77;41.45;;;;;;;2.83;87.11;99163.25;1817447;79;21072;-65
2022/12/24 00:10:51;;;;;;;62.58;44.30;;;;;;;2.84;87.04;99157.05;1817500;79;22069;-66
2022/12/24 00:13:18;;;;;;;58.33;39.05;;;;;;;2.93;86.56;99161.48;1817198;79;21076;-65
2022/12/24 00:15:44;;;;;;;63.05;43.42;;;;;;;2.93;86.56;99161.48;1803001;79;21018;-66
2022/12/24 00:18:11;;;;;;;60.70;40.33;;;;;;;2.86;86.59;99159.06;1817369;79;21033;-63
2022/12/24 00:20:37;;;;;;;59.95;40.33;;;;;;;2.81;86.72;99162.55;1793259;79;21127;-63
2022/12/24 00:23:04;;;;;;;66.53;43.65;;;;;;;2.84;86.66;99161.45;1785220;80;21142;-66
2022/12/24 00:25:31;;;;;;;63.95;42.30;;;;;;;2.91;86.51;99158.66;1779468;79;21051;-66
2022/12/24 00:27:57;;;;;;;59.77;42.88;;;;;;;2.86;86.70;99155.59;1775036;80;21036;-66
2022/12/24 00:30:24;;;;;;;59.93;41.35;;;;;;;2.80;86.93;99150.42;1781862;79;21548;-66
2022/12/24 00:32:50;;;;;;;63.65;41.65;;;;;;;2.75;87.21;99153.42;1817518;78;21019;-65
2022/12/24 00:35:17;;;;;;;64.80;41.30;;;;;;;2.81;87.36;99153.86;1807417;79;21132;-65
2022/12/24 00:37:47;;;;;;;58.75;40.80;;;;;;;2.93;87.06;99145.73;1791689;78;21041;-68
2022/12/24 00:40:15;;;;;;;60.40;41.13;;;;;;;2.97;86.94;99144.99;1790093;79;21641;-65
2022/12/24 00:42:41;;;;;;;60.05;40.50;;;;;;;2.98;86.82;99134.03;1817307;79;21021;-64
2022/12/24 00:45:10;;;;;;;65.75;42.62;;;;;;;2.97;86.80;99127.11;1817372;78;21057;-65
2022/12/24 00:47:37;;;;;;;57.03;38.65;;;;;;;2.94;86.60;99126.42;1817531;79;21763;-65
2022/12/24 00:50:05;;;;;;;55.85;39.23;;;;;;;3.02;86.30;99134.11;1804643;79;21053;-65
2022/12/24 00:52:31;;;;;;;60.52;42.08;;;;;;;3.08;85.70;99141.44;1785876;80;21603;-64
2022/12/24 00:54:58;;;;;;;63.08;43.25;;;;;;;2.98;85.75;99129.61;1814857;79;21041;-64
2022/12/24 00:57:24;;;;;;;65.70;44.83;;;;;;;2.90;86.01;99134.22;1814744;79;21029;-65
2022/12/24 00:59:52;;;;;;;58.38;39.63;;;;;;;2.84;86.20;99139.16;1814835;79;21860;-65
2022/12/24 01:02:19;;;;;;;61.23;41.92;;;;;;;2.87;86.22;99135.78;1817682;79;20998;-67
2022/12/24 01:07:32;;;;;;;64.25;42.73;;;;;;;2.86;86.38;99138.08;1835245;77;21080;-64
2022/12/24 01:09:58;;;;;;;62.45;39.48;;;;;;;2.80;86.66;99143.86;1857460;77;20994;-64
2022/12/24 01:12:25;;;;;;;53.13;38.17;;;;;;;2.84;86.66;99137.38;1857589;77;21135;-63
2022/12/24 01:14:51;;;;;;;57.38;38.70;;;;;;;2.94;86.42;99134.30;1857513;77;21969;-64
2022/12/24 01:17:18;;;;;;;59.13;39.23;;;;;;;2.88;86.76;99140.08;1857544;77;21072;-65
2022/12/24 01:19:45;;;;;;;59.73;40.63;;;;;;;2.88;86.76;99140.08;1857630;77;21045;-64
2022/12/24 01:22:11;;;;;;;55.60;36.08;;;;;;;2.85;86.90;99138.20;1857679;77;21579;-64
2022/12/24 01:24:40;;;;;;;57.50;37.30;;;;;;;2.92;86.79;99145.89;1842241;77;20978;-67
2022/12/24 01:27:06;;;;;;;55.63;38.63;;;;;;;3.01;86.42;99149.00;1857528;77;21517;-66
2022/12/24 01:29:33;;;;;;;56.80;38.28;;;;;;;2.98;86.45;99151.09;1830199;78;21041;-69
2022/12/24 01:31:59;;;;;;;57.33;37.55;;;;;;;2.93;86.60;99153.61;1829939;78;21013;-65
2022/12/24 01:34:26;;;;;;;55.30;36.83;;;;;;;2.93;86.73;99152.78;1834958;77;21500;-64
2022/12/24 01:36:52;;;;;;;56.58;37.35;;;;;;;3.02;86.31;99140.18;1819719;78;22269;-64
2022/12/24 01:39:19;;;;;;;59.38;39.58;;;;;;;3.00;86.32;99147.85;1837485;77;21035;-66
2022/12/24 01:44:33;;;;;;;51.18;36.20;;;;;;;2.97;86.49;99129.73;1838140;77;21005;-65
2022/12/24 01:47:20;;;;;;;57.05;36.75;;;;;;;3.01;86.42;99128.50;1800035;77;21553;-65
2022/12/24 01:49:51;;;;;;;53.83;35.43;;;;;;;3.10;86.21;99132.95;1796513;78;21122;-64
2022/12/24 01:52:21;;;;;;;55.12;39.38;;;;;;;3.04;86.29;99125.63;1822016;78;21092;-63
2022/12/24 01:54:52;;;;;;;55.78;38.75;;;;;;;2.98;86.30;99126.16;1812369;78;21555;-63
2022/12/24 01:57:35;;;;;;;56.28;38.10;;;;;;;2.94;86.48;99124.28;1804757;78;21044;-64
2022/12/24 02:00:06;;;;;;;52.50;36.90;;;;;;;3.04;86.31;99125.63;1826138;78;21074;-63
2022/12/24 02:02:32;;;;;;;56.73;38.33;;;;;;;3.04;86.17;99124.30;1824121;77;21073;-65
2022/12/24 02:05:28;;;;;;;55.67;38.38;;;;;;;2.98;86.26;99123.54;1822884;78;21048;-64
2022/12/24 02:07:55;;;;;;;52.60;35.68;;;;;;;2.92;86.42;99129.66;1796079;77;21065;-64
2022/12/24 02:10:22;;;;;;;54.30;38.83;;;;;;;2.93;86.42;99126.55;1808489;77;21564;-63
2022/12/24 02:12:49;;;;;;;57.78;39.75;;;;;;;2.99;86.31;99123.87;1857201;77;21045;-66
2022/12/24 02:15:17;;;;;;;55.38;38.42;;;;;;;2.93;86.50;99119.98;1828992;77;21131;-65
2022/12/24 02:18:18;;;;;;;51.55;34.98;;;;;;;2.89;86.67;99119.42;1815880;78;21023;-65
2022/12/24 02:21:29;;;;;;;49.75;34.98;;;;;;;2.87;86.88;99117.42;1811202;77;21041;-66
2022/12/24 02:24:10;;;;;;;51.05;35.35;;;;;;;2.94;86.64;99120.35;1836943;77;21025;-65
2022/12/24 02:27:11;;;;;;;53.63;37.95;;;;;;;2.94;86.64;99120.35;1853999;77;21024;-65
2022/12/24 02:30:04;;;;;;;58.17;37.28;;;;;;;2.86;86.74;99119.71;1831141;77;21082;-64
2022/12/24 02:32:42;;;;;;;48.20;33.85;;;;;;;2.82;86.96;99117.01;1834130;77;21068;-67
2022/12/24 02:35:38;;;;;;;50.80;36.40;;;;;;;2.91;86.87;99114.87;1847441;77;21103;-64
2022/12/24 02:38:24;;;;;;;53.13;36.58;;;;;;;2.91;86.82;99114.05;1839466;77;21505;-66
2022/12/24 02:40:59;;;;;;;58.83;38.92;;;;;;;2.85;87.01;99111.97;1818182;77;21022;-63
2022/12/24 02:43:30;;;;;;;48.35;33.78;;;;;;;2.84;87.08;99109.83;1795658;78;21820;-63
2022/12/24 02:46:01;;;;;;;53.70;37.53;;;;;;;2.95;86.85;99112.35;1801818;77;21515;-66
2022/12/24 02:48:28;;;;;;;49.65;35.90;;;;;;;3.03;86.59;99102.95;1793399;79;21005;-64
2022/12/24 02:51:01;;;;;;;50.90;36.13;;;;;;;3.02;86.66;99109.18;1813457;77;20984;-66
2022/12/24 02:53:27;;;;;;;53.35;36.20;;;;;;;3.01;86.65;99100.45;1797032;78;21047;-65
2022/12/24 02:55:59;;;;;;;52.15;34.92;;;;;;;3.05;86.62;99107.13;1823233;78;21310;-64
2022/12/24 02:58:43;;;;;;;47.60;34.05;;;;;;;3.05;86.62;99107.13;1809928;79;21057;-65
2022/12/24 03:01:32;;;;;;;52.38;36.10;;;;;;;3.19;86.21;99104.58;1804075;78;21076;-65
2022/12/24 03:04:15;;;;;;;51.00;36.40;;;;;;;3.19;86.11;99104.58;1820878;78;20992;-63
2022/12/24 03:07:01;;;;;;;51.50;36.63;;;;;;;3.17;86.15;99110.45;1810089;78;21126;-64
2022/12/24 03:09:39;;;;;;;50.45;34.73;;;;;;;3.14;86.15;99109.40;1803970;78;21145;-64
2022/12/24 03:12:10;;;;;;;53.78;36.17;;;;;;;3.17;86.04;99103.89;1797524;78;21477;-62
2022/12/24 03:14:36;;;;;;;52.43;36.70;;;;;;;3.28;85.66;99112.10;1803831;79;21044;-63
2022/12/24 03:17:03;;;;;;;51.02;35.85;;;;;;;3.25;85.61;99105.34;1777381;79;21017;-64
2022/12/24 03:19:30;;;;;;;51.30;37.48;;;;;;;3.21;85.81;99103.96;1826326;78;20993;-65
2022/12/24 03:21:57;;;;;;;53.35;36.23;;;;;;;3.19;85.79;99107.66;1774745;79;21014;-63
2022/12/24 03:24:23;;;;;;;49.60;35.50;;;;;;;3.18;85.87;99108.16;1811512;78;21002;-64
2022/12/24 03:26:51;;;;;;;50.38;36.25;;;;;;;3.29;85.55;99105.41;1773910;79;21351;-66
2022/12/24 03:29:17;;;;;;;56.23;39.58;;;;;;;3.27;85.40;99109.97;1761935;81;21887;-64
2022/12/24 03:31:47;;;;;;;54.53;36.85;;;;;;;3.23;85.56;99107.77;1779698;80;21045;-65
2022/12/24 03:34:14;;;;;;;48.00;34.98;;;;;;;3.17;85.77;99103.03;1829289;78;21125;-65
2022/12/24 03:36:41;;;;;;;51.05;35.40;;;;;;;3.24;85.70;99098.41;1806144;78;21019;-67
2022/12/24 03:39:08;;;;;;;48.55;34.45;;;;;;;3.31;85.52;99098.72;1796166;79;20991;-66
2022/12/24 03:41:35;;;;;;;51.90;35.05;;;;;;;3.28;85.54;99096.35;1796223;79;21072;-65
2022/12/24 03:44:02;;;;;;;51.02;37.67;;;;;;;3.22;85.69;99094.28;1824269;78;21044;-65
2022/12/24 03:46:30;;;;;;;50.50;35.63;;;;;;;3.19;85.82;99094.54;1794165;78;21028;-65
2022/12/24 03:48:57;;;;;;;47.70;33.65;;;;;;;3.25;85.75;99091.39;1791304;80;20985;-64
2022/12/24 03:51:24;;;;;;;47.50;34.08;;;;;;;3.38;85.52;99095.05;1778661;79;21025;-64
2022/12/24 03:53:53;;;;;;;53.10;36.50;;;;;;;3.37;85.47;99088.15;1770988;79;21084;-64
2022/12/24 03:56:20;;;;;;;58.48;36.88;;;;;;;3.34;85.53;99091.40;1823880;78;20969;-65
2022/12/24 03:58:46;;;;;;;53.55;38.02;;;;;;;3.32;85.54;99085.45;1764480;80;21860;-64
2022/12/24 04:01:13;;;;;;;51.95;36.25;;;;;;;3.30;85.45;99092.64;1767185;79;21035;-64
2022/12/24 04:03:40;;;;;;;45.33;34.60;;;;;;;3.44;84.92;99108.47;1827531;77;21081;-67
2022/12/24 04:06:10;;;;;;;49.30;34.50;;;;;;;3.44;84.92;99108.47;1802460;78;21084;-68
2022/12/24 04:08:37;;;;;;;55.78;39.13;;;;;;;3.40;84.99;99114.97;1803338;78;21107;-67
2022/12/24 04:11:04;;;;;;;58.52;39.75;;;;;;;3.31;85.38;99099.53;1814732;78;22012;-66
2022/12/24 04:13:32;;;;;;;48.45;36.10;;;;;;;3.31;85.38;99099.53;1800377;79;21498;-66
2022/12/24 04:16:04;;;;;;;49.55;35.73;;;;;;;3.38;85.30;99097.20;1800577;78;21053;-67
2022/12/24 04:18:31;;;;;;;53.68;37.00;;;;;;;3.27;85.58;99099.47;1814468;78;21005;-65
2022/12/24 04:20:58;;;;;;;51.68;37.60;;;;;;;3.27;85.58;99099.47;1828888;78;21000;-67
2022/12/24 04:23:26;;;;;;;50.28;34.03;;;;;;;3.22;85.94;99106.09;1808854;78;21561;-69
2022/12/24 04:25:52;;;;;;;49.70;34.90;;;;;;;3.28;85.86;99098.52;1827356;78;21098;-67
2022/12/24 04:28:19;;;;;;;49.18;36.15;;;;;;;3.32;85.74;99101.21;1833257;78;20997;-69
2022/12/24 04:30:45;;;;;;;55.17;38.30;;;;;;;3.30;85.83;99099.20;1805835;78;21036;-66
2022/12/24 04:33:12;;;;;;;53.02;36.77;;;;;;;3.25;85.95;99092.70;1800206;79;21040;-68
2022/12/24 04:35:44;;;;;;;52.93;35.25;;;;;;;3.37;85.76;99095.53;1806819;78;21230;-66
2022/12/24 04:38:09;;;;;;;48.80;33.75;;;;;;;3.37;85.76;99101.28;1832020;78;21088;-67
2022/12/24 04:40:35;;;;;;;51.90;37.23;;;;;;;3.37;85.76;99101.28;1821267;78;21009;-65
2022/12/24 04:43:01;;;;;;;52.10;36.05;;;;;;;3.24;86.12;99080.04;1816898;78;21508;-67
2022/12/24 04:45:28;;;;;;;49.73;34.63;;;;;;;3.24;86.12;99080.04;1814348;78;21008;-66
2022/12/24 04:47:55;;;;;;;46.73;33.80;;;;;;;3.33;86.15;99081.84;1804768;78;21130;-67
2022/12/24 04:50:21;;;;;;;49.83;33.95;;;;;;;3.36;86.29;99082.05;1821362;78;21308;-69
2022/12/24 04:52:48;;;;;;;50.40;35.90;;;;;;;3.31;86.33;99081.16;1809989;78;21520;-68
2022/12/24 04:55:14;;;;;;;48.58;35.52;;;;;;;3.33;86.53;99084.97;1801572;78;21064;-66
2022/12/24 04:57:41;;;;;;;50.83;34.48;;;;;;;3.33;86.53;99084.97;1800575;78;21060;-67
2022/12/24 05:00:09;;;;;;;48.80;34.20;;;;;;;3.34;86.46;99083.98;1816422;78;21131;-68
2022/12/24 05:02:35;;;;;;;49.13;36.45;;;;;;;3.47;86.06;99091.59;1825019;78;21196;-66
2022/12/24 05:05:02;;;;;;;53.30;37.55;;;;;;;3.43;86.03;99084.96;1811241;79;21073;-67
2022/12/24 05:07:29;;;;;;;53.60;36.95;;;;;;;3.38;86.23;99079.28;1805587;79;21432;-66
2022/12/24 05:09:55;;;;;;;45.58;33.55;;;;;;;3.32;86.38;99081.52;1813250;79;21282;-66
2022/12/24 05:12:22;;;;;;;47.25;34.38;;;;;;;3.33;86.37;99083.16;1797982;78;21121;-67
2022/12/24 05:14:48;;;;;;;49.03;35.95;;;;;;;3.44;86.08;99078.73;1791596;79;21567;-67
2022/12/24 05:17:15;;;;;;;50.63;38.08;;;;;;;3.40;86.16;99079.52;1817578;79;21060;-65
2022/12/24 05:19:41;;;;;;;52.00;36.60;;;;;;;3.39;86.11;99082.27;1793562;79;21018;-67
2022/12/24 05:27:37;;;;;;;53.70;37.65;;;;;;;3.41;85.67;99087.72;1790919;79;21199;-65
2022/12/24 05:30:06;;;;;;;48.60;35.73;;;;;;;3.29;85.98;99087.52;1817577;79;21072;-66
2022/12/24 05:32:33;;;;;;;51.42;37.13;;;;;;;3.29;85.98;99087.52;1818082;79;21518;-65
2022/12/24 05:35:00;;;;;;;50.35;35.52;;;;;;;3.23;86.34;99090.70;1815496;79;21044;-66
2022/12/24 05:37:26;;;;;;;51.23;35.40;;;;;;;3.24;86.39;99089.72;1808868;78;21854;-67
2022/12/24 05:39:53;;;;;;;51.40;36.35;;;;;;;3.31;86.18;99092.97;1808005;79;20982;-65
2022/12/24 05:42:19;;;;;;;49.67;36.68;;;;;;;3.22;86.44;99096.91;1802180;79;20976;-64
2022/12/24 05:44:46;;;;;;;51.80;36.25;;;;;;;3.22;86.44;99096.91;1795000;79;21021;-64
2022/12/24 05:47:12;;;;;;;47.38;34.00;;;;;;;3.17;86.45;99093.39;1804329;79;21012;-64
2022/12/24 05:49:39;;;;;;;52.65;36.80;;;;;;;3.27;86.40;99103.90;1810957;79;21160;-64
2022/12/24 05:52:07;;;;;;;59.27;39.60;;;;;;;3.33;86.25;99104.66;1816834;79;21029;-64
2022/12/24 05:54:33;;;;;;;51.58;36.83;;;;;;;3.30;86.19;99109.70;1817803;78;21092;-66
2022/12/24 05:57:00;;;;;;;49.08;34.67;;;;;;;3.25;86.39;99104.52;1790373;79;21586;-64
2022/12/24 05:59:28;;;;;;;48.85;34.00;;;;;;;3.25;86.61;99108.45;1815881;79;21065;-65
2022/12/24 06:01:55;;;;;;;45.88;33.38;;;;;;;3.34;86.38;99108.46;1813792;78;21283;-66
2022/12/24 06:04:21;;;;;;;49.77;35.43;;;;;;;3.37;86.41;99113.09;1817295;79;21509;-63
2022/12/24 06:06:47;;;;;;;51.35;37.10;;;;;;;3.32;86.38;99114.34;1817869;79;21025;-62
2022/12/24 06:09:14;;;;;;;50.15;35.00;;;;;;;3.31;86.56;99120.54;1809247;78;21080;-65
2022/12/24 06:11:40;;;;;;;48.28;33.40;;;;;;;3.37;86.50;99127.53;1818189;79;21006;-63
2022/12/24 06:14:07;;;;;;;46.92;33.50;;;;;;;3.46;86.35;99128.85;1809497;79;21308;-64
2022/12/24 06:16:34;;;;;;;54.65;37.00;;;;;;;3.45;86.04;99133.74;1806310;79;21021;-64
2022/12/24 06:19:01;;;;;;;56.05;39.30;;;;;;;3.40;86.18;99125.47;1804195;79;20990;-64
2022/12/24 06:21:27;;;;;;;55.35;37.35;;;;;;;3.34;86.35;99124.67;1804634;79;20982;-66
2022/12/24 06:23:54;;;;;;;54.80;36.25;;;;;;;3.32;86.54;99131.41;1814257;79;21020;-66
2022/12/24 06:26:22;;;;;;;56.30;33.42;;;;;;;3.43;86.38;99124.35;1804526;79;21246;-67
2022/12/24 06:28:49;;;;;;;57.15;38.73;;;;;;;3.48;86.14;99133.48;1815886;79;21017;-67
2022/12/24 06:31:18;;;;;;;61.18;39.10;;;;;;;3.47;86.13;99128.36;1803488;79;21041;-67
2022/12/24 06:33:45;;;;;;;53.92;35.40;;;;;;;3.43;86.08;99133.05;1813420;79;21504;-66
2022/12/24 06:36:16;;;;;;;54.40;38.28;;;;;;;3.48;86.17;99131.34;1813288;79;21034;-66
2022/12/24 06:38:44;;;;;;;62.17;41.08;;;;;;;3.45;85.86;99129.80;1817251;78;21130;-67
2022/12/24 06:41:11;;;;;;;63.68;42.88;;;;;;;3.45;85.86;99129.80;1811289;79;21006;-66
2022/12/24 06:43:37;;;;;;;62.85;41.45;;;;;;;3.40;86.21;99138.59;1810680;79;21059;-68
2022/12/24 06:46:04;;;;;;;57.58;38.48;;;;;;;3.40;86.21;99138.59;1785530;80;21058;-67
2022/12/24 06:48:30;;;;;;;56.58;38.95;;;;;;;3.49;85.76;99131.67;1808821;79;21051;-68
2022/12/24 06:50:57;;;;;;;60.05;39.03;;;;;;;3.54;85.96;99133.41;1813495;79;21137;-67
2022/12/24 06:53:23;;;;;;;61.90;38.73;;;;;;;3.52;86.02;99134.04;1804213;79;20993;-67
2022/12/24 06:55:50;;;;;;;60.73;38.63;;;;;;;3.49;86.02;99134.30;1805381;79;21059;-67
2022/12/24 06:58:16;;;;;;;60.73;37.60;;;;;;;3.49;86.02;99134.30;1804314;79;21068;-66
2022/12/24 07:00:42;;;;;;;52.40;36.05;;;;;;;3.56;86.02;99135.42;1809348;79;21522;-67
2022/12/24 07:03:09;;;;;;;56.55;38.42;;;;;;;3.71;85.65;99138.47;1817381;78;21158;-65
2022/12/24 07:05:35;;;;;;;56.50;39.30;;;;;;;3.71;85.52;99143.23;1811161;78;21062;-68
2022/12/24 07:08:02;;;;;;;57.93;40.90;;;;;;;3.70;85.47;99141.55;1828093;78;21539;-65
2022/12/24 07:10:29;;;;;;;67.37;46.33;;;;;;;3.66;85.34;99145.44;1807971;78;21077;-65
2022/12/24 07:12:56;;;;;;;62.98;42.00;;;;;;;3.62;85.40;99141.42;1810864;78;21507;-67
2022/12/24 07:15:22;;;;;;;60.15;40.28;;;;;;;3.71;85.12;99139.29;1806482;78;21135;-64
2022/12/24 07:17:49;;;;;;;55.63;39.40;;;;;;;3.71;85.08;99141.92;1820258;78;21005;-66
2022/12/24 07:20:15;;;;;;;55.98;40.38;;;;;;;3.67;85.34;99147.11;1801338;78;21639;-64
2022/12/24 07:22:42;;;;;;;66.57;45.88;;;;;;;3.64;85.55;99139.48;1814385;78;21488;-66
2022/12/24 07:25:10;;;;;;;55.98;39.58;;;;;;;3.65;85.54;99150.36;1827213;78;21016;-66
2022/12/24 07:27:36;;;;;;;55.35;36.75;;;;;;;3.72;85.31;99148.81;1811940;78;21235;-64
2022/12/24 07:30:04;;;;;;;55.90;38.55;;;;;;;3.81;85.02;99150.28;1802982;78;21080;-65
2022/12/24 07:32:30;;;;;;;52.98;38.92;;;;;;;3.80;85.08;99142.86;1807174;78;21007;-65
2022/12/24 07:34:57;;;;;;;55.12;39.90;;;;;;;3.79;85.08;99137.77;1809585;78;20985;-66
2022/12/24 07:37:23;;;;;;;59.53;37.17;;;;;;;3.78;85.31;99142.67;1816375;78;21064;-66
2022/12/24 07:39:50;;;;;;;48.73;35.48;;;;;;;3.83;85.02;99143.91;1829912;78;21905;-66
2022/12/24 07:42:17;;;;;;;54.65;39.73;;;;;;;3.97;84.73;99137.88;1825312;78;21009;-66
2022/12/24 07:44:44;;;;;;;52.10;38.80;;;;;;;3.97;84.68;99138.70;1819617;78;21028;-65
2022/12/24 07:47:10;;;;;;;54.40;38.67;;;;;;;3.98;84.62;99148.27;1830129;78;21040;-66
2022/12/24 07:49:37;;;;;;;50.12;37.53;;;;;;;3.91;84.69;99145.34;1822073;78;21568;-63
2022/12/24 07:52:04;;;;;;;54.85;36.77;;;;;;;3.91;84.69;99145.34;1814504;78;21202;-66
2022/12/24 07:54:32;;;;;;;50.92;36.13;;;;;;;3.96;84.56;99146.26;1817478;78;21044;-64
2022/12/24 07:56:58;;;;;;;51.33;35.15;;;;;;;4.09;84.24;99139.37;1821907;78;21508;-67
2022/12/24 07:59:25;;;;;;;52.00;36.48;;;;;;;4.08;84.19;99135.92;1832998;78;21080;-66
2022/12/24 08:01:51;;;;;;;52.43;38.58;;;;;;;4.04;84.13;99131.10;1830059;78;21555;-66
2022/12/24 08:04:18;;;;;;;55.65;36.88;;;;;;;4.02;84.26;99135.18;1814513;78;21421;-66
2022/12/24 08:06:44;;;;;;;51.42;36.55;;;;;;;4.05;84.25;99136.19;1799095;78;21045;-67
2022/12/24 08:09:13;;;;;;;55.60;37.48;;;;;;;4.23;83.70;99136.78;1819670;77;20997;-67
2022/12/24 08:11:39;;;;;;;54.18;39.90;;;;;;;4.27;83.87;99146.06;1791513;78;21018;-66
2022/12/24 08:14:05;;;;;;;53.38;39.10;;;;;;;4.25;83.33;99129.58;1813623;79;21493;-70
2022/12/24 08:16:32;;;;;;;53.85;40.23;;;;;;;4.22;83.36;99127.25;1837603;77;21133;-67
2022/12/24 08:18:58;;;;;;;55.73;39.00;;;;;;;4.20;83.18;99126.56;1843982;77;21049;-66
2022/12/24 08:21:25;;;;;;;54.23;39.85;;;;;;;4.21;83.11;99134.78;1841566;77;21505;-68
2022/12/24 08:23:51;;;;;;;56.68;41.05;;;;;;;4.28;82.71;99124.05;1788514;79;21028;-68
2022/12/24 08:26:18;;;;;;;57.95;40.95;;;;;;;4.22;82.67;99120.19;1782528;78;21052;-69
2022/12/24 08:28:46;;;;;;;53.38;40.17;;;;;;;4.18;82.76;99126.70;1782782;78;21246;-65
2022/12/24 08:31:14;;;;;;;55.98;40.03;;;;;;;4.12;82.79;99117.58;1792777;79;21088;-66
2022/12/24 08:33:44;;;;;;;56.18;38.42;;;;;;;4.09;82.84;99128.36;1796573;77;21049;-66
2022/12/24 08:36:09;;;;;;;52.67;38.67;;;;;;;4.18;82.62;99117.99;1815464;78;21497;-66
2022/12/24 08:38:36;;;;;;;60.98;41.45;;;;;;;4.19;82.62;99123.11;1814494;77;20998;-66
2022/12/24 08:41:03;;;;;;;58.35;40.75;;;;;;;4.16;82.76;99119.94;1807003;78;21126;-66
2022/12/24 08:43:29;;;;;;;61.90;42.38;;;;;;;4.13;82.82;99129.77;1783359;79;21011;-65
2022/12/24 08:46:03;;;;;;;61.35;40.78;;;;;;;4.14;82.89;99126.64;1817065;78;21100;-67
2022/12/24 08:48:34;;;;;;;55.98;39.73;;;;;;;4.27;82.84;99121.09;1819557;77;21002;-66
2022/12/24 08:51:10;;;;;;;61.90;42.00;;;;;;;4.28;82.83;99123.55;1798652;79;21005;-66
2022/12/24 08:53:38;;;;;;;60.05;41.92;;;;;;;4.28;82.74;99121.41;1810417;78;21067;-66
2022/12/24 08:56:07;;;;;;;56.55;40.17;;;;;;;4.27;82.94;99117.14;1810014;78;20982;-66
2022/12/24 08:58:34;;;;;;;59.38;40.58;;;;;;;4.27;82.91;99117.97;1811164;78;21073;-66
2022/12/24 09:01:00;;;;;;;58.63;39.53;;;;;;;4.34;82.82;99122.15;1820165;78;21079;-66
2022/12/24 09:03:27;;;;;;;63.28;42.05;;;;;;;4.47;82.49;99114.77;1820126;77;21071;-66
2022/12/24 09:05:53;;;;;;;69.65;44.45;;;;;;;4.50;82.50;99126.80;1795731;78;21133;-66
2022/12/24 09:08:20;;;;;;;84.92;52.33;;;;;;;4.52;82.46;99130.96;1827548;78;21001;-66
2022/12/24 09:10:47;;;;;;;85.95;51.58;;;;;;;4.48;82.21;99134.00;1794760;80;21032;-67
2022/12/24 09:13:13;;;;;;;82.12;48.17;;;;;;;4.40;82.42;99133.41;1815393;78;21001;-65
2022/12/24 09:15:40;;;;;;;82.20;49.80;;;;;;;4.47;82.46;99145.02;1818363;78;21002;-67
2022/12/24 09:19:01;;;;;;;91.67;55.53;;;;;;;4.57;82.46;99125.75;1833977;77;23102;-66
2022/12/24 09:21:28;;;;;;;86.12;57.40;;;;;;;4.51;82.73;99128.47;1802883;77;21544;-67
2022/12/24 09:23:54;;;;;;;92.55;56.70;;;;;;;4.49;82.75;99128.61;1809716;76;21132;-67
2022/12/24 09:26:24;;;;;;;90.38;56.35;;;;;;;4.48;82.71;99132.22;1780991;76;20946;-67
2022/12/24 09:28:51;;;;;;;78.25;50.55;;;;;;;4.55;82.61;99129.02;1805469;76;21634;-73
2022/12/24 09:31:20;;;;;;;74.03;46.92;;;;;;;4.59;82.64;99125.12;1824164;76;20981;-72
2022/12/24 09:33:47;;;;;;;73.25;47.53;;;;;;;4.56;82.73;99121.45;1817327;76;21058;-72
2022/12/24 09:36:14;;;;;;;69.30;46.15;;;;;;;4.52;82.94;99115.18;1825231;76;21230;-70
2022/12/24 09:38:42;;;;;;;71.70;47.43;;;;;;;4.51;82.99;99121.39;1804554;76;20958;-71
2022/12/24 09:41:43;;;;;;;67.95;43.70;;;;;;;4.57;83.09;99121.31;1801585;77;20982;-71
2022/12/24 09:44:44;;;;;;;70.30;47.90;;;;;;;4.73;82.93;99117.58;1793338;77;21042;-70
2022/12/24 09:47:19;;;;;;;76.55;49.10;;;;;;;4.77;82.77;99118.13;1793111;77;21643;-70
2022/12/24 09:49:46;;;;;;;74.03;46.08;;;;;;;4.77;83.04;99114.17;1801050;77;21089;-71
2022/12/24 09:52:17;;;;;;;70.28;48.70;;;;;;;4.81;82.95;99116.85;1807271;77;21022;-72
2022/12/24 09:54:49;;;;;;;65.87;43.55;;;;;;;4.83;82.91;99123.26;1810959;77;21054;-70
2022/12/24 09:57:29;;;;;;;66.85;43.45;;;;;;;4.91;82.47;99123.38;1809365;77;21477;-72
2022/12/24 09:59:55;;;;;;;67.87;45.70;;;;;;;5.04;81.94;99126.96;1814656;77;21045;-71
2022/12/24 10:02:22;;;;;;;73.02;47.98;;;;;;;5.02;81.74;99129.77;1811768;77;21120;-71
2022/12/24 10:04:48;;;;;;;80.92;50.58;;;;;;;4.95;81.57;99138.40;1813432;77;21185;-72
2022/12/24 10:07:50;;;;;;;116.50;68.87;;;;;;;4.88;81.62;99136.82;1817109;78;21429;-71
2022/12/24 10:10:39;;;;;;;98.62;61.20;;;;;;;4.82;81.73;99140.86;1797279;77;21101;-72
2022/12/24 10:13:27;;;;;;;79.60;51.98;;;;;;;4.88;81.82;99139.45;1809201;77;21489;-72
2022/12/24 10:16:02;;;;;;;79.92;52.73;;;;;;;4.89;81.91;99141.95;1810115;77;21142;-71
2022/12/24 10:18:55;;;;;;;67.08;48.78;;;;;;;4.85;82.24;99139.77;1813462;78;21039;-71
2022/12/24 10:21:56;;;;;;;64.03;44.75;;;;;;;4.81;82.33;99139.22;1737810;81;21049;-71
2022/12/24 10:24:37;;;;;;;66.90;44.23;;;;;;;4.76;82.44;99142.77;1753551;81;21086;-72
2022/12/24 10:27:13;;;;;;;82.53;56.55;;;;;;;4.85;82.38;99140.58;1754079;81;21559;-70
2022/12/24 10:29:45;;;;;;;69.75;49.70;;;;;;;4.90;82.17;99146.72;1712802;82;21027;-70
2022/12/24 10:32:25;;;;;;;66.30;49.45;;;;;;;4.85;82.23;99145.02;1739436;81;21527;-71
2022/12/24 10:35:01;;;;;;;73.20;51.40;;;;;;;4.79;82.42;99140.32;1744585;81;21021;-71
2022/12/24 10:37:28;;;;;;;76.12;52.17;;;;;;;4.75;82.58;99152.12;1730531;83;21534;-71
2022/12/24 10:39:56;;;;;;;76.70;52.35;;;;;;;4.78;82.53;99146.08;1750041;81;21519;-71
2022/12/24 10:42:28;;;;;;;67.20;47.50;;;;;;;4.87;82.38;99149.16;1762296;81;21225;-71
2022/12/24 10:44:56;;;;;;;71.40;50.35;;;;;;;4.87;82.44;99145.21;1748591;81;21078;-71
2022/12/24 10:47:23;;;;;;;69.67;51.42;;;;;;;4.85;82.55;99145.84;1762412;81;21041;-71
2022/12/24 10:50:04;;;;;;;69.03;46.90;;;;;;;4.83;82.59;99146.95;1762076;81;21073;-71
2022/12/24 10:52:34;;;;;;;70.52;48.73;;;;;;;4.86;82.71;99144.86;1744728;81;21077;-72
2022/12/24 10:55:22;;;;;;;74.58;53.50;;;;;;;4.98;82.49;99147.30;1762062;81;21104;-72
2022/12/24 10:58:05;;;;;;;71.28;51.35;;;;;;;4.99;82.47;99151.60;1750671;81;21034;-72
2022/12/24 11:00:32;;;;;;;70.78;50.30;;;;;;;4.99;82.64;99147.16;1738326;81;21833;-72
2022/12/24 11:03:19;;;;;;;67.58;48.33;;;;;;;5.01;82.61;99154.42;1735535;81;21031;-71
2022/12/24 11:05:45;;;;;;;68.20;48.35;;;;;;;5.12;82.30;99154.72;1734548;81;22382;-72
2022/12/24 11:08:16;;;;;;;69.58;50.12;;;;;;;5.27;82.01;99161.14;1739796;81;21948;-71
2022/12/24 11:11:06;;;;;;;72.75;50.63;;;;;;;5.29;81.97;99155.23;1754656;81;21094;-70
2022/12/24 11:13:51;;;;;;;69.77;50.65;;;;;;;5.30;81.85;99149.47;1739144;81;21054;-72
2022/12/24 11:16:32;;;;;;;66.97;47.70;;;;;;;5.35;82.03;99149.02;1747549;81;21011;-71
2022/12/24 11:19:01;;;;;;;66.62;46.10;;;;;;;5.43;81.63;99143.85;1758429;81;21097;-72
2022/12/24 11:21:33;;;;;;;61.55;46.02;;;;;;;5.55;81.09;99144.45;1719959;82;21114;-71
2022/12/24 11:24:08;;;;;;;64.12;47.00;;;;;;;5.54;81.24;99155.45;1720798;82;21056;-71
2022/12/24 11:26:34;;;;;;;67.40;47.73;;;;;;;5.57;80.75;99157.80;1721146;82;21067;-72
2022/12/24 11:29:17;;;;;;;62.35;45.33;;;;;;;5.50;80.62;99151.47;1727292;82;21251;-69
2022/12/24 11:31:44;;;;;;;63.45;44.23;;;;;;;5.47;81.07;99150.47;1725517;82;20990;-72
2022/12/24 11:34:27;;;;;;;85.57;51.37;;;;;;;5.52;80.93;99154.78;1724538;83;21098;-71
2022/12/24 11:37:16;;;;;;;81.45;53.15;;;;;;;5.58;80.80;99162.58;1719678;82;21046;-71
2022/12/24 11:39:50;;;;;;;69.35;46.63;;;;;;;5.49;80.97;99159.05;1703200;83;20987;-70
2022/12/24 11:42:37;;;;;;;69.25;46.23;;;;;;;5.42;81.36;99163.25;1721613;82;21664;-71
2022/12/24 11:45:24;;;;;;;64.50;42.90;;;;;;;5.39;81.73;99161.75;1714711;82;21086;-70
2022/12/24 11:47:52;;;;;;;59.53;41.90;;;;;;;5.43;81.71;99155.70;1710710;82;21162;-70
2022/12/24 11:50:28;;;;;;;55.08;40.58;;;;;;;5.55;81.46;99157.13;1717987;82;21153;-70